createdAt,value
2023-09-29T00:00:22.971Z,12.50
2023-09-29T00:02:54.493Z,12.80
2023-09-29T00:05:23.131Z,12.20
2023-09-29T00:07:52.738Z,12.20
2023-09-29T00:10:23.152Z,12.30
2023-09-29T00:12:53.041Z,12.87
2023-09-29T00:15:23.223Z,12.20
2023-09-29T00:17:51.685Z,12.10
2023-09-29T00:20:24.857Z,12.23
2023-09-29T00:22:54.491Z,11.87
2023-09-29T00:25:23.445Z,12.35
2023-09-29T00:27:53.161Z,11.90
2023-09-29T00:30:22.052Z,12.10
2023-09-29T00:32:51.901Z,11.70
2023-09-29T00:35:25.653Z,12.50
2023-09-29T00:37:55.228Z,12.63
2023-09-29T00:40:23.715Z,12.37
2023-09-29T00:42:53.831Z,12.97
2023-09-29T00:45:24.762Z,11.73
2023-09-29T00:47:56.368Z,11.67
2023-09-29T00:50:27.324Z,12.07
2023-09-29T00:52:59.417Z,11.97
2023-09-29T00:55:29.944Z,12.20
2023-09-29T00:58:01.228Z,12.33
2023-09-29T01:00:39.151Z,12.17
2023-09-29T01:03:10.263Z,11.60
2023-09-29T01:05:39.657Z,12.17
2023-09-29T01:08:10.856Z,12.33
2023-09-29T01:10:39.482Z,11.80
2023-09-29T01:13:09.656Z,12.13
2023-09-29T01:15:40.457Z,11.53
2023-09-29T01:18:10.647Z,12.27
2023-09-29T01:20:42.331Z,12.47
2023-09-29T01:23:11.210Z,12.20
2023-09-29T01:25:41.327Z,12.17
2023-09-29T01:28:13.301Z,11.70
2023-09-29T01:30:44.399Z,11.83
2023-09-29T01:33:13.586Z,11.90
2023-09-29T01:35:45.544Z,12.50
2023-09-29T01:38:14.037Z,12.30
2023-09-29T01:40:46.178Z,11.80
2023-09-29T01:43:14.408Z,12.37
2023-09-29T01:45:42.990Z,12.20
2023-09-29T01:48:13.043Z,12.00
2023-09-29T01:50:41.391Z,12.30
2023-09-29T01:53:13.156Z,11.50
2023-09-29T01:55:41.260Z,12.30
2023-09-29T01:58:11.144Z,11.73
2023-09-29T02:00:40.031Z,11.83
2023-09-29T02:03:09.373Z,11.70
2023-09-29T02:05:38.020Z,12.40
2023-09-29T02:08:07.870Z,11.70
2023-09-29T02:10:36.322Z,11.53
2023-09-29T02:13:06.142Z,11.70
2023-09-29T02:15:36.648Z,12.33
2023-09-29T02:18:06.389Z,12.90
2023-09-29T02:20:36.763Z,11.87
2023-09-29T02:23:06.383Z,12.10
2023-09-29T02:25:34.847Z,12.10
2023-09-29T02:28:03.074Z,12.97
2023-09-29T02:30:31.963Z,12.53
2023-09-29T02:33:01.624Z,12.00
2023-09-29T02:35:30.487Z,12.30
2023-09-29T02:37:58.695Z,12.00
2023-09-29T02:40:26.994Z,12.10
2023-09-29T02:42:55.214Z,12.03
2023-09-29T02:45:24.316Z,12.90
2023-09-29T02:47:53.601Z,12.10
2023-09-29T02:50:26.290Z,12.47
2023-09-29T02:52:54.916Z,12.03
2023-09-29T02:55:24.187Z,12.33
2023-09-29T02:57:52.830Z,12.37
2023-09-29T03:00:23.170Z,12.50
2023-09-29T03:02:53.024Z,13.30
2023-09-29T03:05:23.454Z,13.00
2023-09-29T03:07:55.761Z,13.40
2023-09-29T03:10:26.689Z,13.10
2023-09-29T03:12:57.860Z,12.80
2023-09-29T03:15:27.524Z,12.50
2023-09-29T03:18:00.187Z,13.40
2023-09-29T03:20:30.458Z,12.83
2023-09-29T03:23:05.649Z,12.60
2023-09-29T03:25:34.210Z,12.67
2023-09-29T03:28:03.090Z,13.67
2023-09-29T03:30:32.522Z,12.93
2023-09-29T03:33:00.910Z,13.80
2023-09-29T03:35:30.703Z,13.53
2023-09-29T03:37:58.954Z,13.40
2023-09-29T03:40:27.980Z,12.87
2023-09-29T03:42:56.971Z,13.43
2023-09-29T03:45:26.469Z,13.17
2023-09-29T03:47:54.795Z,12.37
2023-09-29T03:50:22.896Z,12.60
2023-09-29T03:52:52.290Z,12.53
2023-09-29T03:55:20.657Z,13.00
2023-09-29T03:57:49.509Z,12.50
2023-09-29T04:00:19.814Z,12.67
2023-09-29T04:02:51.489Z,12.33
2023-09-29T04:05:20.685Z,12.47
2023-09-29T04:07:49.065Z,12.03
2023-09-29T04:10:18.918Z,11.80
2023-09-29T04:12:47.586Z,12.30
2023-09-29T04:15:16.824Z,12.30
2023-09-29T04:17:45.509Z,11.90
2023-09-29T04:20:14.436Z,12.30
2023-09-29T04:22:42.605Z,12.23
2023-09-29T04:25:12.217Z,12.40
2023-09-29T04:27:42.569Z,12.87
2023-09-29T04:30:13.760Z,12.83
2023-09-29T04:32:43.151Z,12.70
2023-09-29T04:35:11.724Z,13.20
2023-09-29T04:37:39.970Z,13.50
2023-09-29T04:40:09.720Z,12.40
2023-09-29T04:42:38.711Z,12.17
2023-09-29T04:45:09.366Z,13.10
2023-09-29T04:47:38.639Z,12.90
2023-09-29T04:50:10.151Z,12.57
2023-09-29T04:52:38.251Z,12.87
2023-09-29T04:55:07.070Z,13.37
2023-09-29T04:57:35.109Z,13.77
2023-09-29T05:00:04.241Z,13.43
2023-09-29T05:02:33.956Z,12.87
2023-09-29T05:05:02.215Z,13.27
2023-09-29T05:07:30.256Z,13.60
2023-09-29T05:09:58.600Z,13.10
2023-09-29T05:12:26.913Z,13.40
2023-09-29T05:14:55.029Z,12.90
2023-09-29T05:17:23.217Z,12.70
2023-09-29T05:19:54.788Z,12.90
2023-09-29T05:22:22.918Z,12.77
2023-09-29T05:24:51.210Z,13.17
2023-09-29T05:27:19.353Z,12.93
2023-09-29T05:29:47.661Z,13.73
2023-09-29T05:32:15.996Z,14.13
2023-09-29T05:34:44.116Z,13.70
2023-09-29T05:37:13.936Z,13.93
2023-09-29T05:39:42.434Z,13.10
2023-09-29T05:42:10.733Z,13.30
2023-09-29T05:44:38.860Z,13.97
2023-09-29T05:47:07.073Z,13.80
2023-09-29T05:49:35.157Z,13.10
2023-09-29T05:52:03.938Z,13.80
2023-09-29T05:54:33.899Z,13.03
2023-09-29T05:57:02.152Z,13.50
2023-09-29T05:59:31.521Z,13.13
2023-09-29T06:02:12.582Z,13.10
2023-09-29T06:04:46.929Z,14.67
2023-09-29T06:07:15.390Z,12.93
2023-09-29T06:09:45.059Z,13.33
2023-09-29T06:12:13.825Z,13.60
2023-09-29T06:14:42.211Z,13.07
2023-09-29T06:17:10.542Z,12.67
2023-09-29T06:19:38.678Z,12.90
2023-09-29T06:22:06.833Z,12.87
2023-09-29T06:24:34.936Z,12.60
2023-09-29T06:27:04.895Z,12.90
2023-09-29T06:29:33.618Z,13.00
2023-09-29T06:32:01.707Z,12.80
2023-09-29T06:34:29.844Z,12.93
2023-09-29T06:36:58.239Z,13.00
2023-09-29T06:39:26.413Z,13.20
2023-09-29T06:41:54.519Z,12.70
2023-09-29T06:44:24.402Z,12.53
2023-09-29T06:46:52.609Z,12.87
2023-09-29T06:49:21.018Z,12.33
2023-09-29T06:51:49.763Z,13.20
2023-09-29T06:54:18.051Z,12.80
2023-09-29T06:56:47.629Z,13.50
2023-09-29T06:59:15.944Z,13.67
2023-09-29T07:01:45.478Z,12.90
2023-09-29T07:04:13.720Z,12.83
2023-09-29T07:06:42.218Z,13.30
2023-09-29T07:09:11.185Z,13.30
2023-09-29T07:11:41.474Z,12.53
2023-09-29T07:14:09.857Z,13.60
2023-09-29T07:16:39.773Z,13.40
2023-09-29T07:19:09.560Z,12.50
2023-09-29T07:21:37.714Z,12.40
2023-09-29T07:24:06.840Z,12.33
2023-09-29T07:26:35.084Z,12.30
2023-09-29T07:29:05.471Z,11.93
2023-09-29T07:32:31.001Z,12.33
2023-09-29T07:36:03.785Z,12.47
2023-09-29T07:38:33.829Z,12.87
2023-09-29T07:49:43.608Z,12.03
2023-09-29T07:52:11.864Z,12.73
2023-09-29T07:54:41.391Z,12.37
2023-09-29T07:57:09.502Z,13.00
2023-09-29T07:59:39.599Z,13.37
2023-09-29T08:02:09.207Z,13.90
2023-09-29T08:04:37.461Z,13.50
2023-09-29T08:07:06.315Z,13.90
2023-09-29T08:09:37.865Z,12.90
2023-09-29T08:12:30.550Z,13.70
2023-09-29T08:17:43.012Z,13.30
2023-09-29T08:20:36.380Z,13.20
2023-09-29T08:29:39.989Z,12.77
2023-09-29T08:32:09.541Z,12.80
2023-09-29T08:34:37.815Z,12.73
2023-09-29T08:37:06.053Z,12.70
2023-09-29T08:39:34.258Z,13.57
2023-09-29T08:42:07.151Z,13.27
2023-09-29T08:44:35.820Z,13.43
2023-09-29T08:47:05.289Z,13.93
2023-09-29T08:49:49.406Z,13.67
2023-09-29T08:52:21.044Z,14.10
2023-09-29T08:54:51.232Z,13.90
2023-09-29T08:57:21.394Z,13.40
2023-09-29T09:00:05.561Z,13.27
2023-09-29T09:02:37.360Z,11.63
2023-09-29T09:05:16.407Z,11.53
2023-09-29T09:07:47.320Z,12.20
2023-09-29T09:10:30.838Z,11.10
2023-09-29T09:13:01.758Z,11.00
2023-09-29T09:15:30.851Z,11.97
2023-09-29T09:18:00.780Z,11.77
2023-09-29T09:20:31.194Z,12.37
2023-09-29T09:23:00.823Z,11.70
2023-09-29T09:25:38.668Z,11.60
2023-09-29T09:28:08.379Z,11.60
2023-09-29T09:30:39.044Z,11.87
2023-09-29T09:33:08.317Z,11.50
2023-09-29T09:35:39.965Z,11.90
2023-09-29T09:38:09.421Z,12.10
2023-09-29T09:40:38.154Z,12.57
2023-09-29T09:43:10.069Z,12.40
2023-09-29T09:45:40.691Z,12.30
2023-09-29T09:48:24.157Z,11.90
2023-09-29T09:50:58.501Z,11.80
2023-09-29T09:53:33.048Z,12.27
2023-09-29T09:56:06.587Z,12.67
2023-09-29T09:58:35.129Z,12.33
2023-09-29T10:01:04.645Z,12.07
2023-09-29T10:03:35.126Z,12.50
2023-09-29T10:06:06.715Z,13.03
2023-09-29T10:08:35.570Z,12.97
2023-09-29T10:11:14.642Z,12.67
2023-09-29T10:13:45.656Z,13.20
2023-09-29T10:16:24.142Z,13.40
2023-09-29T10:19:00.654Z,14.93
2023-09-29T10:21:34.268Z,15.70
2023-09-29T10:24:07.800Z,14.00
2023-09-29T10:26:44.797Z,13.80
2023-09-29T10:29:21.238Z,13.20
2023-09-29T10:31:51.296Z,13.30
2023-09-29T10:34:23.189Z,13.20
2023-09-29T10:36:57.567Z,13.03
2023-09-29T10:39:27.370Z,14.03
2023-09-29T10:42:00.626Z,13.23
2023-09-29T10:44:29.821Z,13.60
2023-09-29T10:46:58.173Z,14.23
2023-09-29T10:49:33.804Z,13.47
2023-09-29T10:52:03.857Z,13.40
2023-09-29T10:54:31.989Z,12.70
2023-09-29T10:57:00.794Z,13.13
2023-09-29T10:59:28.952Z,12.97
2023-09-29T11:01:57.242Z,13.23
2023-09-29T11:04:26.461Z,13.43
2023-09-29T11:06:54.625Z,13.33
2023-09-29T11:09:29.983Z,13.67
2023-09-29T11:11:58.337Z,13.53
2023-09-29T11:14:37.664Z,13.33
2023-09-29T11:17:06.240Z,12.70
2023-09-29T11:19:34.760Z,12.57
2023-09-29T11:22:05.890Z,13.57
2023-09-29T11:24:42.379Z,12.97
2023-09-29T11:30:23.901Z,13.60
2023-09-29T11:32:53.410Z,13.20
2023-09-29T11:35:22.910Z,13.67
2023-09-29T11:38:02.649Z,12.90
2023-09-29T11:40:51.525Z,13.50
2023-09-29T11:43:23.143Z,12.97
2023-09-29T11:46:05.357Z,13.30
2023-09-29T11:48:33.734Z,13.53
2023-09-29T11:51:02.209Z,13.50
2023-09-29T11:53:43.476Z,13.57
2023-09-29T11:56:19.852Z,13.20
2023-09-29T11:58:48.156Z,12.73
2023-09-29T12:01:16.433Z,13.90
2023-09-29T12:03:49.879Z,13.43
2023-09-29T12:06:18.610Z,14.00
2023-09-29T12:09:02.538Z,13.70
2023-09-29T12:11:35.540Z,12.87
2023-09-29T12:14:05.387Z,13.30
2023-09-29T12:16:36.755Z,13.00
2023-09-29T12:19:05.112Z,12.63
2023-09-29T12:21:33.391Z,13.10
2023-09-29T12:24:01.480Z,13.57
2023-09-29T12:26:30.942Z,13.00
2023-09-29T12:29:06.584Z,13.00
2023-09-29T12:31:35.390Z,12.67
2023-09-29T12:34:09.135Z,13.43
2023-09-29T12:40:15.901Z,13.60
2023-09-29T12:43:16.717Z,12.63
2023-09-29T12:46:09.989Z,13.30
2023-09-29T12:49:09.265Z,13.20
2023-09-29T12:51:53.362Z,12.97
2023-09-29T12:54:43.273Z,13.03
2023-09-29T12:57:11.567Z,12.83
2023-09-29T12:59:42.973Z,12.53
2023-09-29T13:02:33.162Z,13.30
2023-09-29T13:05:23.822Z,12.00
2023-09-29T13:07:53.515Z,12.17
2023-09-29T13:10:22.168Z,11.33
2023-09-29T13:13:10.984Z,11.80
2023-09-29T13:15:41.053Z,11.30
2023-09-29T13:18:10.090Z,11.57
2023-09-29T13:20:39.768Z,11.70
2023-09-29T13:23:33.797Z,11.20
2023-09-29T13:30:39.744Z,11.67
2023-09-29T13:33:17.460Z,10.90
2023-09-29T13:44:56.486Z,11.23
2023-09-29T13:48:59.167Z,11.67
2023-09-29T13:55:52.999Z,11.70
2023-09-29T14:06:17.313Z,11.90
2023-09-29T14:09:35.092Z,11.80
2023-09-29T14:12:07.294Z,12.63
2023-09-29T14:18:50.635Z,12.17
2023-09-29T14:25:14.670Z,11.90
2023-09-29T14:28:09.835Z,12.10
2023-09-29T14:35:07.641Z,11.90
2023-09-29T14:37:35.741Z,11.20
2023-09-29T14:40:04.206Z,11.77
2023-09-29T14:42:32.474Z,12.00
2023-09-29T14:45:02.129Z,12.13
2023-09-29T14:56:10.765Z,12.97
2023-09-29T15:03:32.639Z,13.80
2023-09-29T15:14:44.797Z,14.20
2023-09-29T15:21:35.729Z,14.35
2023-09-29T15:27:03.365Z,13.70
2023-09-29T15:29:32.327Z,14.27
2023-09-29T15:36:44.002Z,15.57
2023-09-29T15:39:19.157Z,15.17
2023-09-29T15:41:51.641Z,15.00
2023-09-29T15:44:45.270Z,14.80
2023-09-29T15:47:26.657Z,14.80
2023-09-29T15:50:10.296Z,16.70
2023-09-29T15:52:43.371Z,16.40
2023-09-29T15:55:12.543Z,15.57
2023-09-29T15:57:40.765Z,15.70
2023-09-29T16:00:10.273Z,15.60
2023-09-29T16:02:39.498Z,16.50
2023-09-29T16:05:09.638Z,15.43
2023-09-29T16:07:38.404Z,17.03
2023-09-29T16:10:08.937Z,16.13
2023-09-29T16:12:37.258Z,16.93
2023-09-29T16:15:07.188Z,16.17
2023-09-29T16:17:35.605Z,16.70
2023-09-29T16:20:04.068Z,17.40
2023-09-29T16:22:33.166Z,17.33
2023-09-29T16:25:01.637Z,18.83
2023-09-29T16:27:31.252Z,18.73
2023-09-29T16:29:59.892Z,18.50
2023-09-29T16:32:32.445Z,20.00
2023-09-29T16:35:04.118Z,21.50
2023-09-29T16:37:49.997Z,21.20
2023-09-29T16:40:28.098Z,22.13
2023-09-29T16:43:13.302Z,21.97
2023-09-29T16:45:45.173Z,22.40
2023-09-29T16:48:13.406Z,21.73
2023-09-29T16:50:42.488Z,22.57
2023-09-29T16:53:10.669Z,23.40
2023-09-29T16:55:38.896Z,23.40
2023-09-29T16:58:08.730Z,24.63
2023-09-29T17:00:37.380Z,23.97
2023-09-29T17:03:05.750Z,24.33
2023-09-29T17:05:35.973Z,24.43
2023-09-29T17:08:05.201Z,23.73
2023-09-29T17:10:33.278Z,24.57
2023-09-29T17:13:01.437Z,24.97
2023-09-29T17:15:31.093Z,24.93
2023-09-29T17:17:59.432Z,24.57
2023-09-29T17:20:27.848Z,25.93
2023-09-29T17:22:56.316Z,24.70
2023-09-29T17:25:24.603Z,24.63
2023-09-29T17:27:52.711Z,23.60
2023-09-29T17:30:21.180Z,24.67
2023-09-29T17:32:51.144Z,24.07
2023-09-29T17:35:19.328Z,23.13
2023-09-29T17:37:47.436Z,24.17
2023-09-29T17:40:19.432Z,24.60
2023-09-29T17:42:48.156Z,24.10
2023-09-29T17:45:16.652Z,23.63
2023-09-29T17:48:25.977Z,24.43
2023-09-29T17:50:58.745Z,24.37
2023-09-29T17:53:27.109Z,23.10
2023-09-29T17:56:02.634Z,22.43
2023-09-29T17:58:31.273Z,22.47
2023-09-29T18:01:05.128Z,22.97
2023-09-29T18:03:35.385Z,22.57
2023-09-29T18:06:04.167Z,23.73
2023-09-29T18:08:45.958Z,22.80
2023-09-29T18:11:41.175Z,21.23
2023-09-29T18:14:09.668Z,23.00
2023-09-29T18:16:38.001Z,23.37
2023-09-29T18:19:48.577Z,22.10
2023-09-29T18:22:20.341Z,22.87
2023-09-29T18:24:48.907Z,22.17
2023-09-29T18:27:17.942Z,21.20
2023-09-29T18:29:46.465Z,22.93
2023-09-29T18:32:15.028Z,21.80
2023-09-29T18:34:46.692Z,23.77
2023-09-29T18:37:18.063Z,21.97
2023-09-29T18:39:46.837Z,22.10
2023-09-29T18:42:15.104Z,21.67
2023-09-29T18:45:41.018Z,20.00
2023-09-29T18:49:02.501Z,21.50
2023-09-29T18:52:03.232Z,21.60
2023-09-29T18:55:18.345Z,20.30
2023-09-29T18:58:34.289Z,21.00
2023-09-29T19:01:15.698Z,22.37
2023-09-29T19:03:45.897Z,20.43
2023-09-29T19:06:14.181Z,20.53
2023-09-29T19:08:43.824Z,19.87
2023-09-29T19:11:31.539Z,18.53
2023-09-29T19:13:59.882Z,18.27
2023-09-29T19:16:29.502Z,17.80
2023-09-29T19:19:05.340Z,16.93
2023-09-29T19:21:33.971Z,16.00
2023-09-29T19:24:15.809Z,16.47
2023-09-29T19:26:54.729Z,15.00
2023-09-29T19:29:23.154Z,14.83
2023-09-29T19:31:52.104Z,14.40
2023-09-29T19:34:20.409Z,14.50
2023-09-29T19:37:32.996Z,15.10
2023-09-29T19:40:06.321Z,14.20
2023-09-29T19:42:36.129Z,15.53
2023-09-29T19:45:05.101Z,14.73
2023-09-29T19:47:33.790Z,15.10
2023-09-29T19:50:03.642Z,14.43
2023-09-29T19:52:31.833Z,14.33
2023-09-29T19:55:17.225Z,14.30
2023-09-29T20:02:09.333Z,14.00
2023-09-29T20:05:20.536Z,14.87
2023-09-29T20:08:22.704Z,13.97
2023-09-29T20:14:12.549Z,13.77
2023-09-29T20:16:40.833Z,13.97
2023-09-29T20:19:09.714Z,14.67
2023-09-29T20:21:38.255Z,13.83
2023-09-29T20:24:06.898Z,14.20
2023-09-29T20:26:37.180Z,13.87
2023-09-29T20:29:06.871Z,13.40
2023-09-29T20:31:36.305Z,14.20
2023-09-29T20:34:38.877Z,14.30
2023-09-29T20:37:38.391Z,14.90
2023-09-29T20:40:32.816Z,14.67
2023-09-29T20:49:23.925Z,13.00
2023-09-29T20:51:57.590Z,14.00
2023-09-29T20:55:00.285Z,14.20
2023-09-29T20:57:39.017Z,13.77
2023-09-29T21:00:23.072Z,14.20
2023-09-29T21:02:57.519Z,13.43
2023-09-29T21:05:53.363Z,13.67
2023-09-29T21:08:21.731Z,12.60
2023-09-29T21:11:11.077Z,13.00
2023-09-29T21:13:39.385Z,12.80
2023-09-29T21:16:18.733Z,13.77
2023-09-29T21:19:00.274Z,13.60
2023-09-29T21:21:30.522Z,14.63
2023-09-29T21:24:08.476Z,12.87
2023-09-29T21:26:38.288Z,12.50
2023-09-29T21:29:06.655Z,12.93
2023-09-29T21:31:40.927Z,12.80
2023-09-29T21:34:11.083Z,12.30
2023-09-29T21:36:39.832Z,12.40
2023-09-29T21:39:09.165Z,12.60
2023-09-29T21:41:37.546Z,12.20
2023-09-29T21:44:11.718Z,12.50
2023-09-29T21:46:41.297Z,12.87
2023-09-29T21:49:36.717Z,13.57
2023-09-29T21:52:42.676Z,12.90
2023-09-29T21:55:32.587Z,12.83
2023-09-29T21:58:24.052Z,12.90
2023-09-29T22:01:35.322Z,12.20
2023-09-29T22:04:41.125Z,13.13
2023-09-29T22:07:10.887Z,13.20
2023-09-29T22:09:39.089Z,12.83
2023-09-29T22:12:07.643Z,13.10
2023-09-29T22:14:36.210Z,13.90
2023-09-29T22:17:04.377Z,13.07
2023-09-29T22:19:32.913Z,12.70
2023-09-29T22:22:01.011Z,13.10
2023-09-29T22:27:31.792Z,13.83
2023-09-29T22:30:03.407Z,12.40
2023-09-29T22:36:03.518Z,13.23
2023-09-29T22:38:34.981Z,13.40
2023-09-29T22:41:05.814Z,13.63
2023-09-29T22:44:02.938Z,13.27
2023-09-29T22:46:58.978Z,12.83
2023-09-29T22:49:51.972Z,12.80
2023-09-29T22:52:54.848Z,12.97
2023-09-29T22:55:35.681Z,12.90
2023-09-29T22:58:46.559Z,12.70
2023-09-29T23:01:41.004Z,13.37
2023-09-29T23:04:31.321Z,13.43
2023-09-29T23:07:29.073Z,13.10
2023-09-29T23:10:25.254Z,12.53
2023-09-29T23:16:01.509Z,13.80
2023-09-29T23:18:30.645Z,13.30
2023-09-29T23:21:10.517Z,13.53
2023-09-29T23:24:06.408Z,13.40
2023-09-29T23:27:07.841Z,13.77
2023-09-29T23:30:07.262Z,12.50
2023-09-29T23:33:00.578Z,12.90
2023-09-29T23:35:37.331Z,12.30
2023-09-29T23:38:06.216Z,12.60
2023-09-29T23:40:34.562Z,12.40
2023-09-29T23:43:02.824Z,12.20
2023-09-29T23:45:32.313Z,12.80
2023-09-29T23:48:02.100Z,11.93
2023-09-29T23:50:30.308Z,12.63
2023-09-29T23:52:58.861Z,12.67
2023-09-29T23:55:43.949Z,12.93
2023-09-29T23:58:39.133Z,12.23
